Time;durP1;ratioP1;P1;durP2;ratioP2;P2;SDS_P1;SDS_P2;PMS_P1;PMS_P2;Temp;Humidity;BMP_temperature;BMP_pressure;BME280_temperature;BME280_humidity;BME280_pressure;Samples;Min_cycle;Max_cycle;Signal;HPM_P1;HPM_P2
2021/08/16 00:01:46;;;;;;;;;;;;;;;21.10;50.82;99590.39;126733;1087;102946;-79
2021/08/16 00:04:34;;;;;;;;;;;;;;;21.10;51.24;99586.90;126868;1090;102937;-79
2021/08/16 00:07:22;;;;;;;;;;;;;;;21.09;50.99;99579.91;126719;1087;101852;-79
2021/08/16 00:10:13;;;;;;;;;;;;;;;21.08;51.24;99576.42;126800;1087;102882;-79
2021/08/16 00:13:00;;;;;;;;;;;;;;;21.07;51.23;99574.75;126788;1090;102955;-79
2021/08/16 00:15:48;;;;;;;;;;;;;;;21.06;51.39;99574.88;126822;1089;102948;-79
2021/08/16 00:18:36;;;;;;;;;;;;;;;21.04;50.89;99574.18;126844;1090;102844;-79
2021/08/16 00:21:24;;;;;;;;;;;;;;;21.02;50.80;99571.66;126763;1089;102270;-79
2021/08/16 00:24:12;;;;;;;;;;;;;;;21.00;50.88;99570.92;126807;1087;103325;-79
2021/08/16 00:27:00;;;;;;;;;;;;;;;21.00;51.21;99578.04;126763;1087;102868;-79
2021/08/16 00:29:47;;;;;;;;;;;;;;;20.97;51.12;99573.01;126815;1087;102857;-79
2021/08/16 00:32:35;;;;;;;;;;;;;;;20.94;51.22;99574.11;126763;1087;100901;-79
2021/08/16 00:35:22;;;;;;;;;;;;;;;20.91;50.74;99570.89;126773;1089;103003;-79
2021/08/16 00:38:11;;;;;;;;;;;;;;;20.89;51.33;99571.03;126740;1087;102865;-78
2021/08/16 00:40:58;;;;;;;;;;;;;;;20.86;51.36;99562.50;126825;1087;102943;-78
2021/08/16 00:43:47;;;;;;;;;;;;;;;20.81;51.25;99547.81;126666;1089;102995;-78
2021/08/16 00:46:35;;;;;;;;;;;;;;;20.79;51.88;99533.02;126849;1090;102958;-78
2021/08/16 00:49:23;;;;;;;;;;;;;;;20.76;52.00;99543.88;126954;1089;103049;-79
2021/08/16 00:52:10;;;;;;;;;;;;;;;20.72;52.14;99540.66;126805;1090;103007;-79
2021/08/16 00:54:59;;;;;;;;;;;;;;;20.68;52.51;99533.95;126770;1090;101795;-79
2021/08/16 00:57:47;;;;;;;;;;;;;;;20.65;52.63;99536.03;126696;1090;102995;-79
2021/08/16 01:00:35;;;;;;;;;;;;;;;20.61;52.78;99539.89;126689;1090;102126;-79
2021/08/16 01:03:23;;;;;;;;;;;;;;;20.58;53.36;99537.50;126622;1089;102957;-79
2021/08/16 01:06:11;;;;;;;;;;;;;;;20.55;54.05;99553.66;126750;1089;102884;-79
2021/08/16 01:08:59;;;;;;;;;;;;;;;20.52;53.83;99546.81;126731;1089;102927;-79
2021/08/16 01:11:50;;;;;;;;;;;;;;;20.50;53.77;99544.30;126823;1089;102868;-79
2021/08/16 01:14:38;;;;;;;;;;;;;;;20.48;54.03;99546.24;126664;1090;102910;-79
2021/08/16 01:17:26;;;;;;;;;;;;;;;20.46;54.05;99537.55;126808;1087;102882;-79
2021/08/16 01:20:14;;;;;;;;;;;;;;;20.44;54.13;99534.20;126726;1089;102827;-79
2021/08/16 01:23:02;;;;;;;;;;;;;;;20.43;54.37;99535.17;126735;1087;102955;-80
2021/08/16 01:25:50;;;;;;;;;;;;;;;20.39;54.73;99528.42;126745;1090;102861;-80
2021/08/16 01:28:38;;;;;;;;;;;;;;;20.37;54.58;99530.37;126820;1090;102953;-79
2021/08/16 01:31:25;;;;;;;;;;;;;;;20.36;54.81;99526.04;126826;1089;102878;-80
2021/08/16 01:34:13;;;;;;;;;;;;;;;20.37;55.15;99533.02;126830;1089;102856;-80
2021/08/16 01:37:01;;;;;;;;;;;;;;;20.37;55.08;99525.07;126830;1090;102875;-80
2021/08/16 01:39:49;;;;;;;;;;;;;;;20.37;54.84;99519.78;126700;1090;102745;-80
2021/08/16 01:42:36;;;;;;;;;;;;;;;20.36;55.21;99518.09;126828;1089;102997;-80
2021/08/16 01:45:24;;;;;;;;;;;;;;;20.32;55.25;99511.39;126793;1087;102865;-80
2021/08/16 01:48:13;;;;;;;;;;;;;;;20.29;55.36;99506.35;126795;1089;102965;-80
2021/08/16 01:51:00;;;;;;;;;;;;;;;20.25;55.61;99507.55;126703;1089;102926;-79
2021/08/16 01:53:48;;;;;;;;;;;;;;;20.19;56.21;99508.08;126873;1090;102863;-79
2021/08/16 01:56:35;;;;;;;;;;;;;;;20.15;56.17;99506.66;126721;1089;102948;-79
2021/08/16 01:59:23;;;;;;;;;;;;;;;20.12;56.77;99498.98;126887;1090;102980;-79
2021/08/16 02:02:10;;;;;;;;;;;;;;;20.09;56.96;99500.05;126709;1087;102946;-79
2021/08/16 02:05:00;;;;;;;;;;;;;;;20.07;56.81;99493.20;126768;1089;102895;-79
2021/08/16 02:07:47;;;;;;;;;;;;;;;20.05;57.25;99497.80;126897;1089;102856;-79
2021/08/16 02:10:37;;;;;;;;;;;;;;;20.01;57.41;99494.56;126744;1087;102943;-79
2021/08/16 02:13:25;;;;;;;;;;;;;;;19.96;57.44;99480.05;126785;1090;102855;-79
2021/08/16 02:16:13;;;;;;;;;;;;;;;19.94;57.84;99488.12;126661;1087;102903;-79
2021/08/16 02:19:01;;;;;;;;;;;;;;;19.92;58.04;99471.49;126884;1087;102887;-79
2021/08/16 02:21:48;;;;;;;;;;;;;;;19.86;58.10;99464.91;126682;1087;100532;-79
2021/08/16 02:24:36;;;;;;;;;;;;;;;19.83;58.43;99465.17;126850;1089;102967;-79
2021/08/16 02:27:24;;;;;;;;;;;;;;;19.80;58.41;99465.44;126777;1089;102889;-79
2021/08/16 02:30:12;;;;;;;;;;;;;;;19.78;58.82;99467.38;126747;1089;102866;-79
2021/08/16 02:33:00;;;;;;;;;;;;;;;19.78;58.68;99461.23;126776;1088;103308;-79
2021/08/16 02:35:48;;;;;;;;;;;;;;;19.78;58.51;99459.43;126741;1089;102890;-79
2021/08/16 02:38:35;;;;;;;;;;;;;;;19.78;58.91;99469.17;126720;1088;103396;-79
2021/08/16 02:41:23;;;;;;;;;;;;;;;19.75;58.58;99474.70;126827;1089;102893;-79
2021/08/16 02:44:10;;;;;;;;;;;;;;;19.72;59.14;99478.44;126801;1089;102922;-79
2021/08/16 02:46:59;;;;;;;;;;;;;;;19.67;59.01;99472.69;126782;1090;102840;-79
2021/08/16 02:49:49;;;;;;;;;;;;;;;19.65;59.27;99461.40;126859;1090;102872;-79
2021/08/16 02:52:36;;;;;;;;;;;;;;;19.64;59.71;99470.30;126810;1090;103031;-79
2021/08/16 02:55:24;;;;;;;;;;;;;;;19.61;59.95;99452.05;126815;1090;102873;-80
2021/08/16 02:58:12;;;;;;;;;;;;;;;19.56;59.85;99451.56;126723;1090;103324;-80
2021/08/16 03:00:59;;;;;;;;;;;;;;;19.54;59.98;99449.04;126795;1090;102946;-80
2021/08/16 03:03:47;;;;;;;;;;;;;;;19.49;60.20;99450.36;126746;1089;102850;-80
2021/08/16 03:06:34;;;;;;;;;;;;;;;19.48;60.26;99459.26;126854;1087;102900;-79
2021/08/16 03:09:26;;;;;;;;;;;;;;;19.45;60.56;99441.00;126775;1088;102887;-79
2021/08/16 03:12:13;;;;;;;;;;;;;;;19.44;60.66;99449.91;126879;1088;102999;-79
2021/08/16 03:15:01;;;;;;;;;;;;;;;19.42;60.90;99443.91;126812;1088;102874;-79
2021/08/16 03:17:48;;;;;;;;;;;;;;;19.40;60.97;99441.39;126864;1088;102860;-79
2021/08/16 03:20:37;;;;;;;;;;;;;;;19.38;61.21;99455.66;126953;1088;102849;-79
2021/08/16 03:23:25;;;;;;;;;;;;;;;19.34;61.12;99436.57;126907;1090;105334;-79
2021/08/16 03:26:12;;;;;;;;;;;;;;;19.31;61.62;99464.11;126804;1088;102853;-79
2021/08/16 03:29:00;;;;;;;;;;;;;;;19.30;61.40;99454.50;126754;1087;101924;-79
2021/08/16 03:31:47;;;;;;;;;;;;;;;19.27;61.82;99452.11;126810;1088;102873;-79
2021/08/16 03:34:35;;;;;;;;;;;;;;;19.26;61.87;99450.42;126618;1090;102874;-79
2021/08/16 03:37:22;;;;;;;;;;;;;;;19.24;62.30;99447.07;126857;1089;103300;-78
2021/08/16 03:40:11;;;;;;;;;;;;;;;19.25;62.20;99447.91;126665;1090;103360;-78
2021/08/16 03:42:58;;;;;;;;;;;;;;;19.26;62.29;99437.20;126783;1088;102887;-78
2021/08/16 03:45:46;;;;;;;;;;;;;;;19.25;62.39;99438.17;126703;1089;102878;-78
2021/08/16 03:48:34;;;;;;;;;;;;;;;19.24;62.85;99452.36;126816;1089;102972;-78
2021/08/16 03:51:22;;;;;;;;;;;;;;;19.22;62.51;99446.36;126679;1090;102847;-80
2021/08/16 03:54:09;;;;;;;;;;;;;;;19.22;62.97;99437.59;126817;1090;102874;-79
2021/08/16 03:56:57;;;;;;;;;;;;;;;19.22;62.55;99427.85;126829;1090;102869;-79
2021/08/16 03:59:45;;;;;;;;;;;;;;;19.21;63.03;99442.03;126806;1090;102916;-79
2021/08/16 04:02:34;;;;;;;;;;;;;;;19.20;62.84;99424.47;126870;1088;102937;-79
2021/08/16 04:05:21;;;;;;;;;;;;;;;19.22;63.08;99417.28;126701;1090;102850;-79
2021/08/16 04:08:09;;;;;;;;;;;;;;;19.22;63.00;99416.44;126700;1089;102983;-79
2021/08/16 04:10:57;;;;;;;;;;;;;;;19.21;63.23;99431.46;126725;1090;103342;-79
2021/08/16 04:13:44;;;;;;;;;;;;;;;19.21;63.27;99418.25;126775;1090;103233;-79
2021/08/16 04:16:32;;;;;;;;;;;;;;;19.24;63.44;99419.80;126666;1090;103390;-79
2021/08/16 04:19:20;;;;;;;;;;;;;;;19.27;63.45;99415.09;126783;1087;102884;-80
2021/08/16 04:22:08;;;;;;;;;;;;;;;19.27;63.36;99407.16;126700;1090;102928;-79
2021/08/16 04:24:56;;;;;;;;;;;;;;;19.29;63.74;99415.80;126781;1090;102854;-80
2021/08/16 04:27:44;;;;;;;;;;;;;;;19.32;63.72;99415.55;126650;1090;102869;-79
2021/08/16 04:30:31;;;;;;;;;;;;;;;19.35;64.32;99427.67;126773;1090;102834;-79
2021/08/16 04:33:20;;;;;;;;;;;;;;;19.37;64.35;99425.74;126804;1087;102868;-79
2021/08/16 04:36:09;;;;;;;;;;;;;;;19.38;64.32;99421.30;126735;1087;102830;-79
2021/08/16 04:38:56;;;;;;;;;;;;;;;19.40;64.70;99432.61;126851;1090;102923;-79
2021/08/16 04:41:44;;;;;;;;;;;;;;;19.41;64.61;99421.07;126635;1088;102924;-79
2021/08/16 04:44:31;;;;;;;;;;;;;;;19.43;64.91;99432.36;126839;1088;102895;-79
2021/08/16 04:47:19;;;;;;;;;;;;;;;19.44;65.34;99431.39;126680;1089;103220;-79
2021/08/16 04:50:07;;;;;;;;;;;;;;;19.46;64.95;99432.94;126758;1089;102821;-79
2021/08/16 04:52:54;;;;;;;;;;;;;;;19.48;65.20;99438.94;126730;1089;104263;-79
2021/08/16 04:55:42;;;;;;;;;;;;;;;19.50;64.93;99428.23;126921;1087;102927;-79
2021/08/16 04:58:29;;;;;;;;;;;;;;;19.54;65.41;99425.23;126775;1090;102945;-79
2021/08/16 05:01:17;;;;;;;;;;;;;;;19.56;65.28;99431.23;126762;1087;102917;-80
2021/08/16 05:04:05;;;;;;;;;;;;;;;19.56;65.74;99425.95;126696;1090;102930;-80
2021/08/16 05:06:52;;;;;;;;;;;;;;;19.58;65.42;99428.49;126768;1088;102904;-80
2021/08/16 05:09:39;;;;;;;;;;;;;;;19.58;65.28;99416.11;126763;1087;102766;-80
2021/08/16 05:12:27;;;;;;;;;;;;;;;19.60;66.05;99431.84;126704;1087;103026;-80
2021/08/16 05:15:15;;;;;;;;;;;;;;;19.59;66.37;99436.30;126787;1087;102876;-80
2021/08/16 05:18:03;;;;;;;;;;;;;;;19.58;66.32;99442.56;126701;1087;102824;-80
2021/08/16 05:20:51;;;;;;;;;;;;;;;19.58;66.76;99436.42;126795;1090;103464;-80
2021/08/16 05:23:38;;;;;;;;;;;;;;;19.60;66.20;99421.27;126695;1090;103022;-79
2021/08/16 05:26:26;;;;;;;;;;;;;;;19.62;66.90;99435.20;126784;1086;103020;-80
2021/08/16 05:29:15;;;;;;;;;;;;;;;19.60;66.86;99437.98;126702;1088;102843;-80
2021/08/16 05:32:03;;;;;;;;;;;;;;;19.61;67.41;99436.17;126800;1090;103023;-80
2021/08/16 05:34:51;;;;;;;;;;;;;;;19.62;67.44;99424.63;126770;1087;103310;-80
2021/08/16 05:37:39;;;;;;;;;;;;;;;19.59;67.66;99423.08;126887;1090;104416;-80
2021/08/16 05:40:27;;;;;;;;;;;;;;;19.61;68.19;99436.17;126793;1090;102873;-80
2021/08/16 05:43:15;;;;;;;;;;;;;;;19.60;67.72;99421.27;126914;1088;102878;-80
2021/08/16 05:46:02;;;;;;;;;;;;;;;19.62;68.52;99424.63;126877;1088;103345;-80
2021/08/16 05:48:50;;;;;;;;;;;;;;;19.66;68.39;99410.17;126745;1088;102887;-80
2021/08/16 05:51:37;;;;;;;;;;;;;;;19.74;67.98;99407.71;126864;1088;102856;-80
2021/08/16 05:54:24;;;;;;;;;;;;;;;19.84;68.54;99408.64;126688;1090;103063;-80
2021/08/16 05:57:11;;;;;;;;;;;;;;;20.05;68.40;99411.28;126883;1090;102934;-81
2021/08/16 05:59:59;;;;;;;;;;;;;;;20.40;68.26;99415.38;126769;1087;102658;-80
2021/08/16 06:02:47;;;;;;;;;;;;;;;20.98;67.05;99411.16;126868;1089;102889;-80
2021/08/16 06:05:35;;;;;;;;;;;;;;;21.57;65.64;99397.06;126797;1087;102857;-80
2021/08/16 06:08:22;;;;;;;;;;;;;;;22.00;64.14;99404.55;126767;1090;103018;-80
2021/08/16 06:11:10;;;;;;;;;;;;;;;22.23;63.55;99398.94;126709;1088;104486;-79
2021/08/16 06:13:58;;;;;;;;;;;;;;;22.18;62.92;99394.06;126799;1087;103168;-79
2021/08/16 06:16:45;;;;;;;;;;;;;;;22.24;62.94;99389.98;126737;1090;102859;-79
2021/08/16 06:19:33;;;;;;;;;;;;;;;22.42;62.61;99387.41;126755;1087;102805;-79
2021/08/16 06:22:21;;;;;;;;;;;;;;;22.49;62.09;99378.73;126785;1090;101064;-79
2021/08/16 06:25:09;;;;;;;;;;;;;;;22.91;62.29;99375.60;126664;1090;102871;-79
2021/08/16 06:27:57;;;;;;;;;;;;;;;24.61;58.87;99370.86;126668;1087;102879;-79
2021/08/16 06:30:45;;;;;;;;;;;;;;;25.47;55.57;99377.75;126668;1087;102804;-79
2021/08/16 06:33:36;;;;;;;;;;;;;;;25.51;55.25;99368.44;126784;1090;102991;-79
2021/08/16 06:36:24;;;;;;;;;;;;;;;25.80;54.24;99357.27;126658;1087;102914;-79
2021/08/16 06:39:24;;;;;;;;;;;;;;;25.64;54.16;99363.41;126730;1090;102930;-79
2021/08/16 06:42:12;;;;;;;;;;;;;;;25.26;54.21;99360.38;126751;1089;102847;-79
2021/08/16 06:45:00;;;;;;;;;;;;;;;24.88;54.67;99363.61;126798;1090;102747;-79
2021/08/16 06:47:48;;;;;;;;;;;;;;;24.67;55.21;99353.37;126713;1088;103309;-79
2021/08/16 06:50:36;;;;;;;;;;;;;;;25.01;55.21;99350.67;126763;1090;102914;-79
2021/08/16 06:53:24;;;;;;;;;;;;;;;26.65;53.65;99344.22;126729;1087;102920;-79
2021/08/16 06:56:11;;;;;;;;;;;;;;;28.69;50.64;99333.45;126752;1090;102879;-79
2021/08/16 06:58:58;;;;;;;;;;;;;;;30.60;47.71;99334.31;126747;1088;103351;-79
2021/08/16 07:01:46;;;;;;;;;;;;;;;32.09;44.67;99328.78;126731;1090;102928;-79
2021/08/16 07:04:34;;;;;;;;;;;;;;;33.22;39.12;99330.04;126845;1087;102882;-79
2021/08/16 07:07:22;;;;;;;;;;;;;;;34.20;39.67;99318.63;126894;1090;101826;-79
2021/08/16 07:10:10;;;;;;;;;;;;;;;34.90;37.32;99304.70;126875;1088;103007;-79
2021/08/16 07:12:58;;;;;;;;;;;;;;;35.38;34.46;99308.18;126813;1090;102874;-79
2021/08/16 07:15:46;;;;;;;;;;;;;;;35.93;35.43;99304.35;126862;1088;101325;-79
2021/08/16 07:18:36;;;;;;;;;;;;;;;36.35;34.13;99307.73;126851;1090;102760;-79
2021/08/16 07:21:23;;;;;;;;;;;;;;;36.57;32.67;99300.58;126846;1090;103326;-79
2021/08/16 07:24:11;;;;;;;;;;;;;;;36.96;32.09;99308.13;126762;1087;102658;-80
2021/08/16 07:26:58;;;;;;;;;;;;;;;37.15;32.02;99318.55;126836;1089;102846;-80
2021/08/16 07:29:46;;;;;;;;;;;;;;;36.89;30.58;99308.30;126813;1088;102849;-80
2021/08/16 07:32:33;;;;;;;;;;;;;;;36.88;29.93;99317.52;126865;1089;102958;-80
2021/08/16 07:35:22;;;;;;;;;;;;;;;36.88;30.26;99307.47;126825;1089;102132;-80
2021/08/16 07:38:09;;;;;;;;;;;;;;;36.83;30.22;99292.98;126857;1089;101753;-80
2021/08/16 07:40:57;;;;;;;;;;;;;;;36.98;30.43;99285.08;126975;1087;102879;-80
2021/08/16 07:43:44;;;;;;;;;;;;;;;36.97;29.45;99283.43;126877;1089;102865;-80
2021/08/16 07:46:35;;;;;;;;;;;;;;;37.04;29.12;99275.14;126908;1087;102847;-80
2021/08/16 07:49:23;;;;;;;;;;;;;;;37.24;29.73;99271.94;126756;1086;101736;-80
2021/08/16 07:52:11;;;;;;;;;;;;;;;37.27;28.15;99272.30;126906;1090;103134;-80
2021/08/16 07:54:58;;;;;;;;;;;;;;;36.93;28.44;99290.42;126813;1089;102668;-80
2021/08/16 07:57:45;;;;;;;;;;;;;;;36.89;28.97;99268.36;126870;1088;102754;-80
2021/08/16 08:00:33;;;;;;;;;;;;;;;36.79;29.28;99291.75;126734;1089;101766;-80
2021/08/16 08:03:21;;;;;;;;;;;;;;;36.73;29.40;99274.55;126794;1087;103476;-80
2021/08/16 08:06:09;;;;;;;;;;;;;;;36.65;28.44;99276.84;126781;1087;102859;-80
2021/08/16 08:08:57;;;;;;;;;;;;;;;36.57;29.47;99278.85;126927;1087;102856;-80
2021/08/16 08:11:45;;;;;;;;;;;;;;;36.68;28.56;99290.75;126783;1090;101693;-80
2021/08/16 08:14:33;;;;;;;;;;;;;;;36.42;27.90;99296.73;126904;1087;102761;-80
2021/08/16 08:17:22;;;;;;;;;;;;;;;36.10;27.99;99293.60;126893;1089;102963;-80
2021/08/16 08:20:10;;;;;;;;;;;;;;;35.90;28.64;99300.20;126974;1089;102666;-80
2021/08/16 08:22:58;;;;;;;;;;;;;;;35.93;28.01;99307.89;127031;1090;102852;-80
2021/08/16 08:25:46;;;;;;;;;;;;;;;35.96;28.80;99307.41;126888;1088;102850;-80
2021/08/16 08:28:33;;;;;;;;;;;;;;;36.00;28.95;99329.47;126934;1088;102867;-80
2021/08/16 08:31:21;;;;;;;;;;;;;;;35.16;29.16;99325.98;126778;1090;102948;-80
2021/08/16 08:34:09;;;;;;;;;;;;;;;34.00;30.42;99332.36;126879;1089;102849;-80
2021/08/16 08:36:56;;;;;;;;;;;;;;;32.87;31.61;99347.70;126789;1090;103125;-79
2021/08/16 08:39:45;;;;;;;;;;;;;;;31.72;33.47;99344.58;126714;1088;102839;-79
2021/08/16 08:42:33;;;;;;;;;;;;;;;30.84;34.91;99343.75;126777;1090;103010;-79
2021/08/16 08:45:22;;;;;;;;;;;;;;;30.11;35.96;99347.07;126917;1089;102985;-80
2021/08/16 08:48:10;;;;;;;;;;;;;;;29.55;37.77;99341.65;126657;1090;102854;-79
2021/08/16 08:50:59;;;;;;;;;;;;;;;28.79;39.65;99334.00;126778;1087;102983;-79
2021/08/16 08:53:47;;;;;;;;;;;;;;;28.21;40.42;99343.74;126854;1090;102974;-79
2021/08/16 08:56:35;;;;;;;;;;;;;;;27.77;42.28;99334.80;126925;1088;102914;-79
2021/08/16 08:59:23;;;;;;;;;;;;;;;27.17;43.85;99338.27;126772;1089;102954;-80
2021/08/16 09:02:14;;;;;;;;;;;;;;;26.69;44.95;99338.33;126835;1087;101786;-80
2021/08/16 09:05:03;;;;;;;;;;;;;;;26.31;45.86;99323.09;126898;1090;102752;-80
2021/08/16 09:07:50;;;;;;;;;;;;;;;26.01;47.39;99324.67;126830;1089;102776;-80
2021/08/16 09:10:40;;;;;;;;;;;;;;;25.73;48.52;99303.70;126882;1087;101812;-80
2021/08/16 09:13:28;;;;;;;;;;;;;;;25.58;49.25;99313.36;126789;1088;102882;-79
2021/08/16 09:16:15;;;;;;;;;;;;;;;25.52;50.25;99303.36;126839;1087;102788;-79
2021/08/16 09:19:30;;;;;;;;;;;;;;;25.66;50.79;99296.48;126666;1087;102847;-79
2021/08/16 09:22:23;;;;;;;;;;;;;;;26.83;49.97;99293.13;126872;1090;102884;-79
2021/08/16 09:25:12;;;;;;;;;;;;;;;28.03;48.43;99295.02;126690;1089;102856;-80
2021/08/16 09:28:00;;;;;;;;;;;;;;;29.08;45.89;99290.14;126919;1089;103039;-79
2021/08/16 09:30:47;;;;;;;;;;;;;;;29.72;43.40;99289.28;126759;1090;102861;-79
2021/08/16 09:33:35;;;;;;;;;;;;;;;29.78;42.49;99291.18;126886;1088;102852;-79
2021/08/16 09:36:35;;;;;;;;;;;;;;;29.69;42.16;99273.56;126829;1088;102956;-79
2021/08/16 09:39:23;;;;;;;;;;;;;;;29.26;41.78;99291.55;126930;1088;102923;-79
2021/08/16 09:42:11;;;;;;;;;;;;;;;28.87;41.79;99350.02;126720;1088;100923;-79
2021/08/16 09:44:59;;;;;;;;;;;;;;;28.65;42.36;99308.02;126812;1089;102964;-80
2021/08/16 09:47:47;;;;;;;;;;;;;;;28.93;42.28;99288.56;126875;1090;102899;-79
2021/08/16 09:50:36;;;;;;;;;;;;;;;29.48;41.76;99302.14;126658;1090;102885;-79
2021/08/16 09:53:25;;;;;;;;;;;;;;;30.05;39.81;99303.81;126676;1090;102869;-79
2021/08/16 09:56:16;;;;;;;;;;;;;;;30.46;40.02;99299.47;126654;1090;102872;-79
2021/08/16 09:59:04;;;;;;;;;;;;;;;30.81;38.73;99297.56;126843;1089;102893;-79
2021/08/16 10:01:52;;;;;;;;;;;;;;;30.43;38.83;99281.88;126759;1090;102870;-80
2021/08/16 10:04:40;;;;;;;;;;;;;;;29.93;38.81;99288.39;126990;1089;101925;-79
2021/08/16 10:07:31;;;;;;;;;;;;;;;29.68;39.76;99293.40;126698;1087;102873;-80
2021/08/16 10:10:19;;;;;;;;;;;;;;;29.59;40.07;99281.12;126799;1089;101838;-80
2021/08/16 10:13:07;;;;;;;;;;;;;;;30.12;39.94;99276.13;126747;1089;103277;-79
2021/08/16 10:15:57;;;;;;;;;;;;;;;30.68;38.59;99280.33;126944;1090;102920;-80
2021/08/16 10:18:47;;;;;;;;;;;;;;;31.00;36.90;99302.16;126578;1088;102650;-80
2021/08/16 10:21:39;;;;;;;;;;;;;;;31.01;37.15;99276.89;126828;1089;102863;-80
2021/08/16 10:24:31;;;;;;;;;;;;;;;31.12;35.92;99283.55;126858;1089;103077;-79
2021/08/16 10:27:28;;;;;;;;;;;;;;;30.85;35.96;99290.73;126884;1089;103144;-80
2021/08/16 10:30:17;;;;;;;;;;;;;;;30.43;37.09;99287.25;126877;1088;102898;-79
2021/08/16 10:33:05;;;;;;;;;;;;;;;30.44;37.41;99272.77;126761;1088;102848;-80
2021/08/16 10:35:54;;;;;;;;;;;;;;;30.32;37.53;99279.73;126781;1090;102846;-80
2021/08/16 10:39:01;;;;;;;;;;;;;;;29.90;38.34;99268.11;126779;1089;102854;-80
2021/08/16 10:41:49;;;;;;;;;;;;;;;29.39;39.05;99281.76;126898;1090;102879;-79
2021/08/16 10:44:38;;;;;;;;;;;;;;;28.87;40.01;99293.64;126808;1087;102850;-79
2021/08/16 10:47:30;;;;;;;;;;;;;;;28.43;41.02;99296.41;126890;1090;103004;-79
2021/08/16 10:50:19;;;;;;;;;;;;;;;28.09;41.52;99294.27;126878;1089;103004;-80
2021/08/16 10:53:08;;;;;;;;;;;;;;;27.84;42.36;99271.45;126955;1089;102841;-80
2021/08/16 10:55:56;;;;;;;;;;;;;;;27.62;42.50;99279.30;126796;1087;101048;-79
2021/08/16 10:58:45;;;;;;;;;;;;;;;27.45;43.11;99272.44;126797;1089;102931;-79
2021/08/16 11:01:34;;;;;;;;;;;;;;;27.33;43.65;99271.22;126942;1090;102764;-79
2021/08/16 11:04:44;;;;;;;;;;;;;;;27.23;44.19;99259.92;126679;1090;103402;-80
2021/08/16 11:07:32;;;;;;;;;;;;;;;27.23;44.62;99259.92;126644;1090;102975;-79
2021/08/16 11:10:20;;;;;;;;;;;;;;;27.32;45.36;99264.20;126745;1089;102913;-79
2021/08/16 11:13:17;;;;;;;;;;;;;;;27.37;44.97;99256.45;126714;1089;102855;-79
2021/08/16 11:16:07;;;;;;;;;;;;;;;27.41;45.17;99241.69;126843;1089;102956;-80
2021/08/16 11:18:57;;;;;;;;;;;;;;;27.38;45.58;99240.20;126929;1088;102955;-78
2021/08/16 11:22:02;;;;;;;;;;;;;;;27.47;45.60;99237.44;126964;1089;102972;-79
2021/08/16 11:24:49;;;;;;;;;;;;;;;27.67;45.56;99236.78;126754;1090;102924;-79
2021/08/16 11:27:41;;;;;;;;;;;;;;;27.85;45.30;99248.99;126725;1087;101015;-79
2021/08/16 11:30:30;;;;;;;;;;;;;;;28.24;45.17;99248.69;126772;1087;102930;-79
2021/08/16 11:33:25;;;;;;;;;;;;;;;28.67;44.42;99233.54;126675;1088;103278;-79
2021/08/16 11:36:14;;;;;;;;;;;;;;;28.93;43.88;99234.88;126782;1088;103100;-79
2021/08/16 11:39:03;;;;;;;;;;;;;;;29.04;44.12;99223.61;126649;1087;102857;-78
2021/08/16 11:41:55;;;;;;;;;;;;;;;28.95;43.64;99232.83;126782;1090;102977;-79
2021/08/16 11:44:43;;;;;;;;;;;;;;;28.62;44.03;99225.23;126786;1088;102970;-79
2021/08/16 11:47:51;;;;;;;;;;;;;;;28.45;44.18;99224.64;126812;1087;102884;-79
2021/08/16 11:50:40;;;;;;;;;;;;;;;28.59;44.38;99225.63;126839;1090;102923;-79
2021/08/16 11:53:37;;;;;;;;;;;;;;;28.76;44.09;99210.95;126888;1087;101902;-79
2021/08/16 11:56:25;;;;;;;;;;;;;;;28.95;44.02;99212.19;126708;1089;100841;-79
2021/08/16 11:59:13;;;;;;;;;;;;;;;29.14;44.29;99202.64;126803;1087;103030;-79
2021/08/16 12:02:02;;;;;;;;;;;;;;;29.38;44.23;99199.52;126711;1090;102839;-79
2021/08/16 12:04:54;;;;;;;;;;;;;;;29.61;43.46;99193.91;126687;1090;102887;-79
2021/08/16 12:07:46;;;;;;;;;;;;;;;29.81;42.54;99209.35;126887;1090;102927;-79
2021/08/16 12:10:41;;;;;;;;;;;;;;;29.79;42.40;99198.77;126839;1087;103033;-79
2021/08/16 12:13:28;;;;;;;;;;;;;;;29.82;42.70;99190.34;126793;1087;102947;-79
2021/08/16 12:16:27;;;;;;;;;;;;;;;29.75;42.09;99189.45;126817;1087;103026;-79
2021/08/16 12:19:16;;;;;;;;;;;;;;;29.79;42.25;99190.70;126847;1090;103574;-79
2021/08/16 12:22:08;;;;;;;;;;;;;;;30.04;42.34;99193.78;126711;1087;102753;-79
2021/08/16 12:25:00;;;;;;;;;;;;;;;30.14;41.32;99202.28;126981;1089;102862;-79
2021/08/16 12:27:58;;;;;;;;;;;;;;;30.15;41.13;99184.29;126685;1089;102890;-79
2021/08/16 12:30:46;;;;;;;;;;;;;;;30.08;41.80;99190.48;126808;1090;102890;-79
2021/08/16 12:33:35;;;;;;;;;;;;;;;30.19;42.06;99186.40;126704;1089;102860;-79
2021/08/16 12:36:24;;;;;;;;;;;;;;;30.21;39.95;99178.13;126822;1088;102754;-79
2021/08/16 12:39:13;;;;;;;;;;;;;;;30.20;41.24;99176.47;126878;1088;103049;-79
2021/08/16 12:42:11;;;;;;;;;;;;;;;30.25;41.15;99168.62;126920;1090;103020;-79
2021/08/16 12:45:01;;;;;;;;;;;;;;;30.35;40.58;99174.45;126721;1089;102910;-79
2021/08/16 12:47:58;;;;;;;;;;;;;;;30.42;40.77;99177.98;126816;1087;101777;-79
2021/08/16 12:50:46;;;;;;;;;;;;;;;30.51;40.49;99165.16;126670;1090;102852;-79
2021/08/16 12:53:33;;;;;;;;;;;;;;;30.66;40.80;99161.28;126768;1090;102954;-79
2021/08/16 12:56:21;;;;;;;;;;;;;;;30.90;39.95;99167.13;126683;1087;102844;-79
2021/08/16 12:59:09;;;;;;;;;;;;;;;30.90;39.34;99156.36;126790;1090;103429;-79
2021/08/16 13:01:57;;;;;;;;;;;;;;;30.84;39.37;99151.78;126719;1087;102956;-79
2021/08/16 13:04:45;;;;;;;;;;;;;;;30.81;38.50;99152.19;126970;1090;102982;-79
2021/08/16 13:07:33;;;;;;;;;;;;;;;30.78;38.42;99148.05;126950;1087;102943;-79
2021/08/16 13:10:21;;;;;;;;;;;;;;;30.83;37.75;99155.50;126819;1090;102847;-79
2021/08/16 13:13:18;;;;;;;;;;;;;;;30.79;38.37;99154.27;126969;1089;102995;-79
2021/08/16 13:16:06;;;;;;;;;;;;;;;30.72;38.06;99142.68;126672;1087;101911;-79
2021/08/16 13:18:54;;;;;;;;;;;;;;;30.74;38.52;99141.44;126959;1089;102785;-79
2021/08/16 13:21:42;;;;;;;;;;;;;;;30.77;38.05;99142.88;126549;1088;102867;-79
2021/08/16 13:24:30;;;;;;;;;;;;;;;30.75;38.25;99142.27;126823;1089;103020;-79
2021/08/16 13:27:18;;;;;;;;;;;;;;;30.59;38.39;99149.66;126709;1089;102875;-79
2021/08/16 13:30:07;;;;;;;;;;;;;;;30.48;38.85;99136.80;126786;1088;101786;-79
2021/08/16 13:32:54;;;;;;;;;;;;;;;30.40;39.24;99133.48;126642;1087;103374;-79
2021/08/16 13:35:42;;;;;;;;;;;;;;;30.25;39.39;99141.72;126807;1090;103335;-79
2021/08/16 13:38:29;;;;;;;;;;;;;;;30.18;39.27;99130.13;126676;1089;102940;-79
2021/08/16 13:41:17;;;;;;;;;;;;;;;30.06;39.38;99124.50;126840;1089;102959;-79
2021/08/16 13:44:05;;;;;;;;;;;;;;;30.03;39.58;99128.39;126592;1089;101385;-79
2021/08/16 13:46:52;;;;;;;;;;;;;;;30.13;39.91;99140.64;126782;1088;102862;-79
2021/08/16 13:49:49;;;;;;;;;;;;;;;30.09;39.82;99129.47;126822;1087;102900;-79
2021/08/16 13:52:36;;;;;;;;;;;;;;;29.99;39.80;99127.14;126700;1090;103469;-79
2021/08/16 13:55:25;;;;;;;;;;;;;;;29.94;39.92;99118.83;126819;1090;102946;-79
2021/08/16 13:58:16;;;;;;;;;;;;;;;29.90;40.51;99132.88;126698;1087;102994;-79
2021/08/16 14:01:04;;;;;;;;;;;;;;;29.78;40.66;99124.55;126872;1087;102919;-79
2021/08/16 14:03:52;;;;;;;;;;;;;;;29.75;41.05;99122.27;126617;1085;101648;-79
2021/08/16 14:06:40;;;;;;;;;;;;;;;29.79;41.30;99120.83;126849;1086;102891;-79
2021/08/16 14:09:29;;;;;;;;;;;;;;;29.81;41.50;99124.17;126686;1088;102940;-79
2021/08/16 14:12:16;;;;;;;;;;;;;;;29.83;41.18;99116.73;126782;1090;103758;-78
2021/08/16 14:15:06;;;;;;;;;;;;;;;29.80;41.39;99119.80;126743;1087;102845;-78
2021/08/16 14:17:54;;;;;;;;;;;;;;;29.68;41.27;99118.73;126924;1090;101789;-79